createdAt,value
2023-07-11T00:01:19.495Z,17.62
2023-07-11T00:03:47.380Z,17.64
2023-07-11T00:06:19.545Z,17.64
2023-07-11T00:08:47.374Z,17.64
2023-07-11T00:11:17.875Z,17.65
2023-07-11T00:13:45.416Z,17.65
2023-07-11T00:16:15.424Z,17.66
2023-07-11T00:18:45.268Z,17.65
2023-07-11T00:21:12.966Z,17.62
2023-07-11T00:23:42.288Z,17.59
2023-07-11T00:26:10.648Z,17.58
2023-07-11T00:28:38.342Z,17.56
2023-07-11T00:31:05.790Z,17.54
2023-07-11T00:33:34.185Z,17.51
2023-07-11T00:36:01.600Z,17.47
2023-07-11T00:38:29.102Z,17.44
2023-07-11T00:40:58.048Z,17.38
2023-07-11T00:43:25.350Z,17.34
2023-07-11T00:46:14.064Z,17.28
2023-07-11T00:48:48.988Z,17.28
2023-07-11T00:51:30.598Z,17.28
2023-07-11T00:53:58.934Z,17.28
2023-07-11T00:56:30.431Z,17.29
2023-07-11T00:58:58.869Z,17.27
2023-07-11T01:01:27.225Z,17.27
2023-07-11T01:03:55.703Z,17.26
2023-07-11T01:06:28.265Z,17.27
2023-07-11T01:08:57.920Z,17.28
2023-07-11T01:11:28.064Z,17.28
2023-07-11T01:13:55.813Z,17.30
2023-07-11T01:16:23.882Z,17.31
2023-07-11T01:18:51.572Z,17.32
2023-07-11T01:21:20.177Z,17.34
2023-07-11T01:23:48.899Z,17.37
2023-07-11T01:26:17.137Z,17.38
2023-07-11T01:28:46.811Z,17.39
2023-07-11T01:31:15.044Z,17.37
2023-07-11T01:33:42.943Z,17.36
2023-07-11T01:36:10.916Z,17.34
2023-07-11T01:38:38.659Z,17.32
2023-07-11T01:41:06.056Z,17.29
2023-07-11T01:43:33.998Z,17.28
2023-07-11T01:46:01.587Z,17.26
2023-07-11T01:48:30.908Z,17.24
2023-07-11T01:50:58.287Z,17.24
2023-07-11T01:53:25.763Z,17.22
2023-07-11T01:55:57.965Z,17.22
2023-07-11T01:58:27.355Z,17.21
2023-07-11T02:00:56.655Z,17.20
2023-07-11T02:03:25.921Z,17.21
2023-07-11T02:05:56.713Z,17.22
2023-07-11T02:08:24.115Z,17.22
2023-07-11T02:10:51.645Z,17.23
2023-07-11T02:13:20.104Z,17.24
2023-07-11T02:15:48.261Z,17.25
2023-07-11T02:18:15.744Z,17.24
2023-07-11T02:20:46.593Z,17.26
2023-07-11T02:23:16.541Z,17.28
2023-07-11T02:25:44.129Z,17.31
2023-07-11T02:28:11.763Z,17.36
2023-07-11T02:30:39.364Z,17.37
2023-07-11T02:33:06.739Z,17.39
2023-07-11T02:35:34.244Z,17.40
2023-07-11T02:38:02.246Z,17.42
2023-07-11T02:40:29.671Z,17.41
2023-07-11T02:42:57.168Z,17.42
2023-07-11T02:45:24.766Z,17.40
2023-07-11T02:47:52.133Z,17.41
2023-07-11T02:50:19.671Z,17.40
2023-07-11T02:52:48.514Z,17.38
2023-07-11T02:55:15.928Z,17.37
2023-07-11T02:57:44.603Z,17.34
2023-07-11T03:00:12.666Z,17.33
2023-07-11T03:02:40.377Z,17.33
2023-07-11T03:05:09.530Z,17.32
2023-07-11T03:07:37.175Z,17.31
2023-07-11T03:10:04.975Z,17.32
2023-07-11T03:12:32.317Z,17.32
2023-07-11T03:15:02.747Z,17.32
2023-07-11T03:17:31.768Z,17.33
2023-07-11T03:19:59.270Z,17.33
2023-07-11T03:22:28.136Z,17.34
2023-07-11T03:24:55.677Z,17.33
2023-07-11T03:27:24.361Z,17.35
2023-07-11T03:29:51.767Z,17.36
2023-07-11T03:32:19.845Z,17.36
2023-07-11T03:34:54.230Z,17.36
2023-07-11T03:37:26.583Z,17.34
2023-07-11T03:39:54.422Z,17.35
2023-07-11T03:42:21.965Z,17.35
2023-07-11T03:44:49.334Z,17.37
2023-07-11T03:47:16.780Z,17.36
2023-07-11T03:49:44.434Z,17.38
2023-07-11T03:52:11.660Z,17.39
2023-07-11T03:54:39.376Z,17.39
2023-07-11T03:57:06.833Z,17.40
2023-07-11T03:59:34.407Z,17.42
2023-07-11T04:02:01.656Z,17.45
2023-07-11T04:04:29.188Z,17.45
2023-07-11T04:06:57.481Z,17.47
2023-07-11T04:09:24.795Z,17.48
2023-07-11T04:11:52.874Z,17.49
2023-07-11T04:14:20.188Z,17.51
2023-07-11T04:16:47.860Z,17.53
2023-07-11T04:19:15.401Z,17.56
2023-07-11T04:21:42.767Z,17.58
2023-07-11T04:24:10.114Z,17.62
2023-07-11T04:26:37.921Z,17.69
2023-07-11T04:29:05.252Z,17.74
2023-07-11T04:31:32.985Z,17.84
2023-07-11T04:34:00.291Z,17.99
2023-07-11T04:36:28.305Z,18.09
2023-07-11T04:38:55.924Z,18.19
2023-07-11T04:41:23.423Z,18.50
2023-07-11T04:43:51.087Z,18.97
2023-07-11T04:46:18.442Z,19.16
2023-07-11T04:48:47.669Z,19.24
2023-07-11T04:51:15.875Z,19.24
2023-07-11T04:53:45.316Z,19.20
2023-07-11T04:56:13.096Z,19.11
2023-07-11T04:58:40.574Z,19.06
2023-07-11T05:01:11.077Z,19.13
2023-07-11T05:03:38.838Z,19.13
2023-07-11T05:06:08.089Z,19.12
2023-07-11T05:08:36.078Z,19.13
2023-07-11T05:11:12.405Z,19.15
2023-07-11T05:13:41.266Z,19.16
2023-07-11T05:16:12.197Z,19.15
2023-07-11T05:18:45.212Z,19.40
2023-07-11T05:21:15.138Z,19.97
2023-07-11T05:23:42.873Z,20.39
2023-07-11T05:26:10.968Z,20.97
2023-07-11T05:28:38.563Z,21.59
2023-07-11T05:31:07.739Z,22.20
2023-07-11T05:33:35.648Z,23.02
2023-07-11T05:36:10.803Z,23.86
2023-07-11T05:38:38.107Z,24.38
2023-07-11T05:41:06.641Z,24.79
2023-07-11T05:43:35.710Z,25.10
2023-07-11T05:46:03.954Z,25.20
2023-07-11T05:48:31.637Z,25.07
2023-07-11T05:51:07.876Z,24.75
2023-07-11T05:53:35.782Z,24.55
2023-07-11T05:56:03.630Z,24.30
2023-07-11T05:58:32.516Z,24.28
2023-07-11T06:01:00.845Z,24.24
2023-07-11T06:03:30.830Z,24.49
2023-07-11T06:06:03.331Z,24.56
2023-07-11T06:08:32.366Z,24.39
2023-07-11T06:11:02.504Z,24.09
2023-07-11T06:13:31.210Z,23.74
2023-07-11T06:16:16.671Z,23.42
2023-07-11T06:18:44.898Z,23.15
2023-07-11T06:21:12.867Z,23.01
2023-07-11T06:23:40.561Z,22.91
2023-07-11T06:26:10.385Z,22.80
2023-07-11T06:28:39.114Z,22.68
2023-07-11T06:31:08.405Z,22.64
2023-07-11T06:33:36.428Z,22.70
2023-07-11T06:36:05.961Z,22.79
2023-07-11T06:38:33.629Z,22.90
2023-07-11T06:41:01.329Z,23.04
2023-07-11T06:43:30.380Z,23.23
2023-07-11T06:45:59.950Z,23.37
2023-07-11T06:48:30.032Z,23.47
2023-07-11T06:51:04.239Z,23.50
2023-07-11T06:53:34.655Z,23.51
2023-07-11T06:56:02.695Z,23.49
2023-07-11T06:58:33.068Z,23.43
2023-07-11T07:01:04.014Z,23.41
2023-07-11T07:03:33.029Z,23.42
2023-07-11T07:06:06.935Z,23.51
2023-07-11T07:08:34.396Z,23.65
2023-07-11T07:11:01.883Z,23.73
2023-07-11T07:13:29.806Z,23.71
2023-07-11T07:15:59.577Z,23.65
2023-07-11T07:18:33.703Z,23.62
2023-07-11T07:21:01.844Z,23.63
2023-07-11T07:23:29.734Z,23.61
2023-07-11T07:25:59.999Z,23.67
2023-07-11T07:28:28.806Z,23.74
2023-07-11T07:30:57.603Z,23.81
2023-07-11T07:33:27.471Z,23.87
2023-07-11T07:36:04.426Z,23.90
2023-07-11T07:38:33.120Z,23.94
2023-07-11T07:41:08.040Z,23.99
2023-07-11T07:43:46.241Z,24.10
2023-07-11T07:46:16.659Z,24.25
2023-07-11T07:48:46.982Z,24.30
2023-07-11T07:51:17.685Z,24.36
2023-07-11T07:53:45.820Z,24.38
2023-07-11T07:56:16.442Z,24.45
2023-07-11T07:58:45.024Z,24.52
2023-07-11T08:01:14.654Z,24.60
2023-07-11T08:03:42.333Z,24.64
2023-07-11T08:06:16.641Z,24.66
2023-07-11T08:08:48.960Z,24.62
2023-07-11T08:11:20.876Z,24.55
2023-07-11T08:13:59.261Z,24.54
2023-07-11T08:16:33.029Z,24.56
2023-07-11T08:19:06.868Z,24.60
2023-07-11T08:21:37.254Z,24.63
2023-07-11T08:24:07.830Z,24.71
2023-07-11T08:26:35.992Z,24.82
2023-07-11T08:29:10.106Z,24.91
2023-07-11T08:31:44.185Z,24.99
2023-07-11T08:34:11.903Z,25.06
2023-07-11T08:36:40.587Z,25.05
2023-07-11T08:39:09.117Z,25.06
2023-07-11T08:41:49.086Z,25.03
2023-07-11T08:44:19.842Z,24.99
2023-07-11T08:46:56.962Z,24.97
2023-07-11T08:49:33.605Z,24.93
2023-07-11T08:52:03.902Z,24.87
2023-07-11T08:54:36.835Z,24.83
2023-07-11T08:57:04.906Z,24.84
2023-07-11T08:59:54.772Z,24.90
2023-07-11T09:02:30.769Z,24.98
2023-07-11T09:05:00.308Z,25.01
2023-07-11T09:07:44.275Z,25.05
2023-07-11T09:10:26.669Z,25.21
2023-07-11T09:13:15.088Z,25.41
2023-07-11T09:15:59.506Z,25.52
2023-07-11T09:18:58.037Z,25.65
2023-07-11T09:22:07.406Z,25.78
2023-07-11T09:25:12.440Z,25.87
2023-07-11T09:27:49.380Z,25.90
2023-07-11T09:30:32.967Z,25.97
2023-07-11T09:35:51.969Z,26.28
2023-07-11T09:38:41.978Z,26.43
2023-07-11T09:41:40.858Z,26.56
2023-07-11T09:44:16.211Z,26.63
2023-07-11T09:46:43.503Z,26.64
2023-07-11T09:49:19.724Z,26.68
2023-07-11T09:51:57.075Z,26.73
2023-07-11T09:54:45.494Z,26.75
2023-07-11T09:57:19.805Z,26.75
2023-07-11T10:00:16.020Z,26.84
2023-07-11T10:02:48.213Z,26.98
2023-07-11T10:05:19.269Z,27.17
2023-07-11T10:07:48.906Z,27.35
2023-07-11T10:10:16.587Z,27.54
2023-07-11T10:12:45.159Z,27.67
2023-07-11T10:15:17.676Z,27.72
2023-07-11T10:17:46.379Z,27.77
2023-07-11T10:20:20.037Z,27.85
2023-07-11T10:22:54.755Z,27.94
2023-07-11T10:25:32.275Z,27.98
2023-07-11T10:28:32.581Z,28.06
2023-07-11T10:31:22.527Z,28.13
2023-07-11T10:34:28.978Z,27.99
2023-07-11T10:37:12.316Z,27.88
2023-07-11T10:39:49.021Z,27.81
2023-07-11T10:42:16.429Z,27.76
2023-07-11T10:44:48.817Z,27.65
2023-07-11T10:47:29.054Z,27.65
2023-07-11T10:49:58.297Z,27.60
2023-07-11T10:52:27.933Z,27.63
2023-07-11T10:55:08.992Z,27.70
2023-07-11T10:57:45.513Z,27.71
2023-07-11T11:00:17.907Z,27.78
2023-07-11T11:03:13.554Z,27.90
2023-07-11T11:06:11.596Z,27.95
2023-07-11T11:08:57.074Z,27.93
2023-07-11T11:12:03.943Z,27.84
2023-07-11T11:14:53.451Z,27.73
2023-07-11T11:17:58.466Z,27.74
2023-07-11T11:21:18.404Z,27.84
2023-07-11T11:24:09.872Z,27.85
2023-07-11T11:27:01.351Z,27.89
2023-07-11T11:29:34.733Z,28.01
2023-07-11T11:32:26.324Z,27.94
2023-07-11T11:35:24.394Z,27.90
2023-07-11T11:38:06.951Z,27.81
2023-07-11T11:40:46.832Z,27.93
2023-07-11T11:43:20.370Z,28.07
2023-07-11T11:51:12.871Z,28.48
2023-07-11T11:53:48.201Z,28.61
2023-07-11T11:56:24.642Z,28.77
2023-07-11T11:59:05.553Z,28.78
2023-07-11T12:01:54.253Z,28.75
2023-07-11T12:04:31.262Z,28.77
2023-07-11T12:07:07.350Z,28.64
2023-07-11T12:09:34.733Z,28.52
2023-07-11T12:12:06.664Z,28.50
2023-07-11T12:14:54.017Z,28.61
2023-07-11T12:17:34.587Z,28.80
2023-07-11T12:20:02.023Z,28.86
2023-07-11T12:22:48.583Z,28.97
2023-07-11T12:25:24.618Z,29.00
2023-07-11T12:27:54.852Z,28.92
2023-07-11T12:30:28.416Z,28.85
2023-07-11T12:33:15.883Z,28.83
2023-07-11T12:35:44.234Z,28.80
2023-07-11T12:38:29.557Z,28.77
2023-07-11T12:41:43.837Z,28.71
2023-07-11T12:44:17.161Z,28.69
2023-07-11T12:46:49.959Z,28.73
2023-07-11T12:49:40.375Z,28.80
2023-07-11T12:52:13.784Z,28.87
2023-07-11T12:54:43.832Z,28.96
2023-07-11T12:57:24.630Z,29.05
2023-07-11T12:59:52.265Z,28.91
2023-07-11T13:02:27.281Z,28.66
2023-07-11T13:04:58.325Z,28.50
2023-07-11T13:07:31.963Z,28.37
2023-07-11T13:10:02.362Z,28.28
2023-07-11T13:12:40.707Z,28.28
2023-07-11T13:15:17.196Z,28.26
2023-07-11T13:17:47.616Z,28.23
2023-07-11T13:20:24.654Z,28.13
2023-07-11T13:22:53.338Z,28.14
2023-07-11T13:25:33.595Z,28.25
2023-07-11T13:28:01.205Z,28.44
2023-07-11T13:30:36.607Z,28.58
2023-07-11T13:33:23.787Z,28.71
2023-07-11T13:35:54.919Z,28.85
2023-07-11T13:38:33.144Z,28.92
2023-07-11T13:41:01.312Z,29.04
2023-07-11T13:43:28.796Z,29.18
2023-07-11T13:46:00.238Z,29.24
2023-07-11T13:48:30.879Z,29.19
2023-07-11T13:51:19.758Z,29.19
2023-07-11T13:53:56.712Z,29.20
2023-07-11T13:56:24.923Z,29.12
2023-07-11T13:58:53.902Z,29.05
2023-07-11T14:01:23.876Z,28.95
2023-07-11T14:03:53.491Z,28.90
2023-07-11T14:06:22.124Z,28.82
2023-07-11T14:08:50.354Z,28.73
2023-07-11T14:11:31.748Z,28.67
2023-07-11T14:13:59.122Z,28.52
2023-07-11T14:16:28.031Z,28.46
2023-07-11T14:18:56.478Z,28.36
2023-07-11T14:21:24.860Z,28.28
2023-07-11T14:23:52.203Z,28.20
2023-07-11T14:26:19.553Z,28.11
2023-07-11T14:28:53.534Z,28.02
2023-07-11T14:31:22.411Z,27.98
2023-07-11T14:33:49.824Z,27.95
2023-07-11T14:36:17.076Z,27.93
2023-07-11T14:38:44.498Z,27.89
2023-07-11T14:41:12.983Z,27.95
2023-07-11T14:43:40.534Z,28.05
2023-07-11T14:46:07.914Z,28.08
2023-07-11T14:48:35.146Z,27.99
2023-07-11T14:51:05.794Z,27.91
2023-07-11T14:53:40.645Z,27.90
2023-07-11T14:58:58.045Z,27.83
2023-07-11T15:01:25.925Z,27.84
2023-07-11T15:16:25.181Z,27.84
2023-07-11T15:18:52.514Z,27.78
2023-07-11T15:21:19.926Z,27.70
2023-07-11T15:23:48.144Z,27.61
2023-07-11T15:26:15.570Z,27.52
2023-07-11T15:28:42.801Z,27.50
2023-07-11T15:31:15.712Z,27.47
2023-07-11T15:33:45.593Z,27.40
2023-07-11T15:36:12.922Z,27.41
2023-07-11T15:38:40.354Z,27.44
2023-07-11T15:41:15.771Z,27.39
2023-07-11T15:43:44.500Z,27.27
2023-07-11T15:46:22.442Z,27.20
2023-07-11T15:48:54.980Z,27.10
2023-07-11T15:51:22.484Z,27.06
2023-07-11T15:53:50.243Z,27.01
2023-07-11T15:56:18.105Z,26.95
2023-07-11T15:58:45.400Z,26.90
2023-07-11T16:01:12.779Z,26.83
2023-07-11T16:03:40.241Z,26.75
2023-07-11T16:06:14.247Z,26.68
2023-07-11T16:08:42.240Z,26.59
2023-07-11T16:11:11.696Z,26.40
2023-07-11T16:13:39.541Z,26.26
2023-07-11T16:16:25.227Z,26.11
2023-07-11T16:18:53.043Z,26.05
2023-07-11T16:21:22.277Z,26.06
2023-07-11T16:23:49.598Z,26.10
2023-07-11T16:26:25.715Z,26.04
2023-07-11T16:28:53.220Z,26.06
2023-07-11T16:31:20.583Z,26.08
2023-07-11T16:33:47.920Z,26.05
2023-07-11T16:36:16.891Z,25.96
2023-07-11T16:38:44.346Z,25.89
2023-07-11T16:41:11.876Z,25.77
2023-07-11T16:43:39.220Z,25.73
2023-07-11T16:46:06.570Z,25.68
2023-07-11T16:48:33.949Z,25.67
2023-07-11T16:51:05.226Z,25.62
2023-07-11T16:53:33.545Z,25.56
2023-07-11T16:56:02.330Z,25.52
2023-07-11T16:58:40.507Z,25.49
2023-07-11T17:01:14.558Z,25.44
2023-07-11T17:03:43.908Z,25.33
2023-07-11T17:06:29.229Z,25.34
2023-07-11T17:08:58.321Z,25.37
2023-07-11T17:11:26.020Z,25.40
2023-07-11T17:13:53.657Z,25.42
2023-07-11T17:16:24.578Z,25.39
2023-07-11T17:18:51.974Z,25.37
2023-07-11T17:21:21.016Z,25.38
2023-07-11T17:23:48.915Z,25.36
2023-07-11T17:26:16.724Z,25.33
2023-07-11T17:28:44.128Z,25.33
2023-07-11T17:31:16.752Z,25.31
2023-07-11T17:33:44.151Z,25.31
2023-07-11T17:36:13.786Z,25.31
2023-07-11T17:38:41.827Z,25.29
2023-07-11T17:41:09.627Z,25.24
2023-07-11T17:43:39.112Z,25.15
2023-07-11T17:46:41.107Z,25.11
2023-07-11T17:49:01.777Z,25.04
2023-07-11T17:51:29.375Z,24.98
2023-07-11T17:53:56.947Z,24.92
2023-07-11T17:56:24.584Z,24.87
2023-07-11T17:58:53.799Z,24.78
2023-07-11T18:01:21.984Z,24.74
2023-07-11T18:03:50.058Z,24.67
2023-07-11T18:06:24.397Z,24.61
2023-07-11T18:08:51.858Z,24.55
2023-07-11T18:11:19.110Z,24.48
2023-07-11T18:13:49.312Z,24.44
2023-07-11T18:16:23.157Z,24.41
2023-07-11T18:18:50.762Z,24.39
2023-07-11T18:21:19.147Z,24.40
2023-07-11T18:23:46.622Z,24.39
2023-07-11T18:26:20.065Z,24.33
2023-07-11T18:28:49.683Z,24.32
2023-07-11T18:31:24.116Z,24.34
2023-07-11T18:33:53.555Z,24.30
2023-07-11T18:36:24.715Z,24.27
2023-07-11T18:38:53.836Z,24.24
2023-07-11T18:41:21.414Z,24.23
2023-07-11T18:43:48.777Z,24.16
2023-07-11T18:46:18.571Z,24.12
2023-07-11T18:48:47.278Z,24.09
2023-07-11T18:51:16.400Z,24.08
2023-07-11T18:53:44.886Z,24.04
2023-07-11T18:56:14.870Z,24.01
2023-07-11T18:58:42.227Z,23.95
2023-07-11T19:01:11.942Z,23.89
2023-07-11T19:03:39.926Z,23.81
2023-07-11T19:06:17.596Z,23.76
2023-07-11T19:08:48.146Z,23.70
2023-07-11T19:11:17.749Z,23.67
2023-07-11T19:13:46.258Z,23.63
2023-07-11T19:16:26.027Z,23.58
2023-07-11T19:18:53.880Z,23.53
2023-07-11T19:21:21.206Z,23.50
2023-07-11T19:23:48.615Z,23.45
2023-07-11T19:26:18.937Z,23.41
2023-07-11T19:28:46.989Z,23.35
2023-07-11T19:31:16.422Z,23.30
2023-07-11T19:33:44.106Z,23.25
2023-07-11T19:36:18.005Z,23.18
2023-07-11T19:38:50.019Z,23.12
2023-07-11T19:41:27.302Z,23.08
2023-07-11T19:43:55.305Z,23.03
2023-07-11T19:46:25.389Z,22.99
2023-07-11T19:49:02.442Z,22.96
2023-07-11T19:51:30.021Z,22.93
2023-07-11T19:53:57.608Z,22.92
2023-07-11T19:56:27.599Z,22.90
2023-07-11T20:01:26.616Z,22.86
2023-07-11T20:03:55.435Z,22.84
2023-07-11T20:06:24.661Z,22.82
2023-07-11T20:08:53.318Z,22.80
2023-07-11T20:11:22.605Z,22.73
2023-07-11T20:13:50.474Z,22.68
2023-07-11T20:16:24.881Z,22.60
2023-07-11T20:18:53.346Z,22.53
2023-07-11T20:21:24.970Z,22.46
2023-07-11T20:23:55.825Z,22.39
2023-07-11T20:26:23.368Z,22.34
2023-07-11T20:28:55.917Z,22.29
2023-07-11T20:31:24.372Z,22.27
2023-07-11T20:33:51.934Z,22.26
2023-07-11T20:36:29.566Z,22.20
2023-07-11T20:38:58.340Z,22.14
2023-07-11T20:41:26.726Z,22.09
2023-07-11T20:43:54.355Z,22.02
2023-07-11T20:46:23.792Z,21.97
2023-07-11T20:48:52.061Z,21.92
2023-07-11T20:51:21.495Z,21.87
2023-07-11T20:53:49.460Z,21.83
2023-07-11T20:56:23.606Z,21.79
2023-07-11T20:58:53.339Z,21.77
2023-07-11T21:01:23.941Z,21.74
2023-07-11T21:03:52.551Z,21.71
2023-07-11T21:06:42.533Z,21.68
2023-07-11T21:09:15.439Z,21.66
2023-07-11T21:11:47.660Z,21.65
2023-07-11T21:14:15.108Z,21.64
2023-07-11T21:16:42.616Z,21.65
2023-07-11T21:19:21.148Z,21.67
2023-07-11T21:21:50.511Z,21.72
2023-07-11T21:24:18.273Z,21.76
2023-07-11T21:26:45.665Z,21.77
2023-07-11T21:29:14.029Z,21.70
2023-07-11T21:31:42.064Z,21.58
2023-07-11T21:34:10.070Z,21.44
2023-07-11T21:36:37.384Z,21.35
2023-07-11T21:39:05.190Z,21.29
2023-07-11T21:41:32.537Z,21.21
2023-07-11T21:43:59.932Z,21.12
2023-07-11T21:46:31.154Z,21.06
2023-07-11T21:49:04.680Z,20.99
2023-07-11T21:51:33.513Z,20.94
2023-07-11T21:54:01.027Z,20.90
2023-07-11T21:56:31.037Z,20.88
2023-07-11T21:59:02.221Z,20.88
2023-07-11T22:01:29.965Z,20.86
2023-07-11T22:03:58.477Z,20.78
2023-07-11T22:06:30.882Z,20.68
2023-07-11T22:09:00.681Z,20.56
2023-07-11T22:11:28.014Z,20.50
2023-07-11T22:13:55.275Z,20.41
2023-07-11T22:16:26.052Z,20.35
2023-07-11T22:18:54.660Z,20.28
2023-07-11T22:21:24.142Z,20.21
2023-07-11T22:23:51.524Z,20.13
2023-07-11T22:26:22.426Z,20.08
2023-07-11T22:28:51.317Z,20.02
2023-07-11T22:31:21.154Z,19.95
2023-07-11T22:33:50.363Z,19.94
2023-07-11T22:36:18.072Z,19.89
2023-07-11T22:38:45.367Z,19.86
2023-07-11T22:41:13.067Z,19.89
2023-07-11T22:43:40.784Z,19.91
2023-07-11T22:46:16.562Z,19.90
2023-07-11T22:48:44.001Z,19.87
2023-07-11T22:51:14.820Z,19.85
2023-07-11T22:53:43.139Z,19.88
2023-07-11T22:56:24.356Z,19.88
2023-07-11T22:58:53.530Z,19.85
2023-07-11T23:01:23.104Z,19.83
2023-07-11T23:03:50.589Z,19.82
2023-07-11T23:06:39.869Z,19.83
2023-07-11T23:09:13.466Z,19.83
2023-07-11T23:11:42.123Z,19.84
2023-07-11T23:14:09.427Z,19.83
2023-07-11T23:16:37.162Z,19.81
2023-07-11T23:19:06.501Z,19.78
2023-07-11T23:21:34.657Z,19.73
2023-07-11T23:24:02.596Z,19.67
2023-07-11T23:26:30.138Z,19.65
2023-07-11T23:28:58.030Z,19.58
2023-07-11T23:31:25.702Z,19.54
2023-07-11T23:33:53.112Z,19.55
2023-07-11T23:36:23.128Z,19.53
2023-07-11T23:38:52.120Z,19.52
2023-07-11T23:41:20.273Z,19.52
2023-07-11T23:43:48.682Z,19.52
2023-07-11T23:46:24.070Z,19.52
2023-07-11T23:48:52.249Z,19.54
2023-07-11T23:51:21.565Z,19.54
2023-07-11T23:53:50.742Z,19.55
2023-07-11T23:56:36.726Z,19.55
2023-07-11T23:59:05.102Z,19.50
